createdAt,value
2023-04-18T00:00:50.571Z,428.00
2023-04-18T00:01:50.625Z,400.00
2023-04-18T00:02:50.752Z,400.00
2023-04-18T00:03:50.927Z,400.00
2023-04-18T00:04:50.767Z,400.00
2023-04-18T00:05:50.641Z,400.00
2023-04-18T00:06:50.661Z,421.00
2023-04-18T00:07:50.681Z,448.00
2023-04-18T00:08:50.677Z,474.00
2023-04-18T00:09:50.683Z,497.00
2023-04-18T00:10:50.690Z,507.00
2023-04-18T00:11:50.675Z,500.00
2023-04-18T00:12:50.655Z,500.00
2023-04-18T00:13:50.654Z,500.00
2023-04-18T00:14:50.660Z,502.00
2023-04-18T00:15:50.656Z,502.00
2023-04-18T00:16:50.691Z,500.00
2023-04-18T00:17:50.665Z,500.00
2023-04-18T00:18:50.652Z,499.00
2023-04-18T00:19:50.653Z,500.00
2023-04-18T00:20:50.646Z,501.00
2023-04-18T00:21:50.637Z,500.00
2023-04-18T00:22:50.628Z,500.00
2023-04-18T00:23:50.620Z,505.00
2023-04-18T00:24:50.643Z,502.00
2023-04-18T00:25:50.638Z,502.00
2023-04-18T00:26:50.742Z,500.00
2023-04-18T00:27:50.603Z,501.00
2023-04-18T00:28:50.600Z,508.00
2023-04-18T00:29:50.623Z,501.00
2023-04-18T00:30:50.631Z,502.00
2023-04-18T00:31:50.605Z,503.00
2023-04-18T00:32:50.653Z,501.00
2023-04-18T00:33:50.594Z,502.00
2023-04-18T00:34:50.582Z,503.00
2023-04-18T00:35:50.576Z,501.00
2023-04-18T00:36:50.570Z,506.00
2023-04-18T00:37:50.580Z,506.00
2023-04-18T00:38:50.557Z,506.00
2023-04-18T00:39:50.561Z,509.00
2023-04-18T00:40:50.565Z,507.00
2023-04-18T00:41:50.567Z,511.00
2023-04-18T00:42:50.584Z,507.00
2023-04-18T00:43:50.608Z,504.00
2023-04-18T00:44:50.566Z,505.00
2023-04-18T00:45:50.579Z,504.00
2023-04-18T00:46:50.570Z,503.00
2023-04-18T00:47:50.621Z,510.00
2023-04-18T00:48:50.547Z,509.00
2023-04-18T00:49:50.555Z,504.00
2023-04-18T00:50:50.538Z,505.00
2023-04-18T00:51:50.555Z,500.00
2023-04-18T00:52:50.550Z,507.00
2023-04-18T00:53:50.536Z,506.00
2023-04-18T00:54:50.533Z,504.00
2023-04-18T00:55:50.533Z,500.00
2023-04-18T00:56:50.527Z,504.00
2023-04-18T00:57:50.529Z,500.00
2023-04-18T00:58:50.555Z,507.00
2023-04-18T00:59:50.539Z,506.00
2023-04-18T01:00:50.533Z,501.00
2023-04-18T01:01:50.561Z,507.00
2023-04-18T01:02:50.622Z,504.00
2023-04-18T01:03:50.706Z,506.00
2023-04-18T01:04:50.525Z,501.00
2023-04-18T01:05:50.526Z,503.00
2023-04-18T01:06:50.518Z,506.00
2023-04-18T01:07:50.507Z,505.00
2023-04-18T01:08:50.517Z,506.00
2023-04-18T01:09:50.537Z,510.00
2023-04-18T01:10:50.505Z,509.00
2023-04-18T01:11:50.511Z,500.00
2023-04-18T01:12:50.535Z,505.00
2023-04-18T01:13:50.502Z,507.00
2023-04-18T01:14:50.531Z,506.00
2023-04-18T01:15:50.572Z,507.00
2023-04-18T01:16:50.521Z,504.00
2023-04-18T01:17:50.527Z,503.00
2023-04-18T01:18:50.478Z,505.00
2023-04-18T01:19:50.470Z,507.00
2023-04-18T01:20:50.482Z,509.00
2023-04-18T01:21:50.471Z,507.00
2023-04-18T01:22:50.487Z,500.00
2023-04-18T01:23:50.452Z,503.00
2023-04-18T01:24:50.451Z,508.00
2023-04-18T01:25:50.446Z,505.00
2023-04-18T01:26:50.443Z,501.00
2023-04-18T01:27:50.461Z,500.00
2023-04-18T01:28:50.437Z,505.00
2023-04-18T01:29:50.445Z,509.00
2023-04-18T01:30:50.492Z,505.00
2023-04-18T01:31:50.493Z,501.00
2023-04-18T01:32:50.479Z,501.00
2023-04-18T01:33:50.476Z,509.00
2023-04-18T01:34:50.516Z,506.00
2023-04-18T01:35:50.522Z,505.00
2023-04-18T01:36:50.498Z,508.00
2023-04-18T01:37:50.492Z,507.00
2023-04-18T01:38:50.494Z,500.00
2023-04-18T01:39:50.483Z,506.00
2023-04-18T01:40:50.547Z,506.00
2023-04-18T01:41:50.467Z,507.00
2023-04-18T01:42:50.469Z,506.00
2023-04-18T01:43:50.468Z,505.00
2023-04-18T01:44:50.452Z,504.00
2023-04-18T01:45:50.480Z,504.00
2023-04-18T01:46:50.544Z,502.00
2023-04-18T01:47:50.511Z,508.00
2023-04-18T01:48:50.448Z,501.00
2023-04-18T01:49:50.474Z,510.00
2023-04-18T01:50:50.473Z,506.00
2023-04-18T01:51:50.441Z,508.00
2023-04-18T01:52:50.445Z,509.00
2023-04-18T01:53:50.431Z,502.00
2023-04-18T01:54:50.458Z,509.00
2023-04-18T01:55:50.449Z,506.00
2023-04-18T01:56:50.424Z,504.00
2023-04-18T01:57:50.410Z,503.00
2023-04-18T01:58:50.406Z,506.00
2023-04-18T01:59:50.398Z,502.00
2023-04-18T02:00:50.481Z,500.00
2023-04-18T02:01:50.428Z,504.00
2023-04-18T02:02:50.604Z,500.00
2023-04-18T02:03:51.299Z,505.00
2023-04-18T02:04:50.443Z,502.00
2023-04-18T02:05:50.368Z,507.00
2023-04-18T02:06:50.377Z,504.00
2023-04-18T02:07:50.408Z,506.00
2023-04-18T02:08:50.367Z,507.00
2023-04-18T02:09:50.356Z,507.00
2023-04-18T02:10:50.395Z,504.00
2023-04-18T02:11:50.363Z,504.00
2023-04-18T02:12:50.373Z,503.00
2023-04-18T02:13:50.355Z,505.00
2023-04-18T02:14:50.385Z,502.00
2023-04-18T02:15:50.393Z,506.00
2023-04-18T02:16:50.466Z,508.00
2023-04-18T02:17:50.386Z,506.00
2023-04-18T02:18:50.369Z,509.00
2023-04-18T02:19:50.341Z,505.00
2023-04-18T02:20:50.377Z,503.00
2023-04-18T02:21:50.339Z,502.00
2023-04-18T02:22:50.337Z,505.00
2023-04-18T02:23:50.333Z,501.00
2023-04-18T02:24:50.334Z,511.00
2023-04-18T02:25:50.357Z,506.00
2023-04-18T02:26:50.376Z,508.00
2023-04-18T02:27:50.326Z,508.00
2023-04-18T02:28:50.325Z,506.00
2023-04-18T02:29:50.332Z,509.00
2023-04-18T02:30:50.313Z,502.00
2023-04-18T02:31:50.391Z,507.00
2023-04-18T02:32:50.336Z,503.00
2023-04-18T02:33:50.312Z,507.00
2023-04-18T02:34:50.451Z,505.00
2023-04-18T02:35:50.311Z,505.00
2023-04-18T02:36:50.355Z,510.00
2023-04-18T02:37:50.306Z,508.00
2023-04-18T02:38:50.300Z,506.00
2023-04-18T02:39:50.333Z,507.00
2023-04-18T02:40:50.299Z,509.00
2023-04-18T02:41:50.298Z,509.00
2023-04-18T02:42:50.332Z,505.00
2023-04-18T02:43:50.290Z,502.00
2023-04-18T02:44:50.296Z,509.00
2023-04-18T02:45:50.316Z,506.00
2023-04-18T02:46:50.279Z,507.00
2023-04-18T02:47:55.460Z,503.00
2023-04-18T02:48:50.260Z,504.00
2023-04-18T02:49:50.327Z,506.00
2023-04-18T02:50:50.286Z,508.00
2023-04-18T02:51:50.246Z,504.00
2023-04-18T02:52:50.237Z,508.00
2023-04-18T02:53:50.231Z,508.00
2023-04-18T02:54:50.218Z,507.00
2023-04-18T02:55:50.214Z,508.00
2023-04-18T02:56:50.210Z,502.00
2023-04-18T02:57:50.208Z,504.00
2023-04-18T02:58:50.199Z,511.00
2023-04-18T02:59:50.186Z,506.00
2023-04-18T03:00:50.183Z,503.00
2023-04-18T03:01:50.174Z,502.00
2023-04-18T03:02:50.341Z,502.00
2023-04-18T03:03:50.161Z,507.00
2023-04-18T03:04:50.200Z,502.00
2023-04-18T03:05:50.147Z,504.00
2023-04-18T03:06:50.161Z,504.00
2023-04-18T03:07:50.179Z,501.00
2023-04-18T03:08:50.130Z,506.00
2023-04-18T03:09:50.121Z,508.00
2023-04-18T03:10:50.121Z,504.00
2023-04-18T03:11:50.108Z,507.00
2023-04-18T03:12:50.132Z,512.00
2023-04-18T03:13:50.086Z,508.00
2023-04-18T03:14:50.084Z,507.00
2023-04-18T03:15:50.103Z,503.00
2023-04-18T03:16:51.109Z,505.00
2023-04-18T03:17:50.150Z,505.00
2023-04-18T03:18:50.058Z,506.00
2023-04-18T03:19:50.060Z,508.00
2023-04-18T03:20:50.043Z,510.00
2023-04-18T03:21:50.038Z,501.00
2023-04-18T03:22:50.054Z,509.00
2023-04-18T03:23:50.035Z,506.00
2023-04-18T03:24:50.051Z,504.00
2023-04-18T03:25:50.013Z,508.00
2023-04-18T03:26:50.009Z,504.00
2023-04-18T03:27:49.996Z,502.00
2023-04-18T03:28:49.985Z,509.00
2023-04-18T03:29:50.020Z,505.00
2023-04-18T03:30:49.985Z,506.00
2023-04-18T03:31:49.978Z,502.00
2023-04-18T03:32:50.043Z,505.00
2023-04-18T03:33:49.960Z,503.00
2023-04-18T03:34:49.949Z,503.00
2023-04-18T03:35:49.943Z,504.00
2023-04-18T03:36:49.931Z,510.00
2023-04-18T03:37:49.928Z,507.00
2023-04-18T03:38:50.178Z,502.00
2023-04-18T03:39:49.910Z,506.00
2023-04-18T03:40:49.899Z,505.00
2023-04-18T03:41:49.897Z,500.00
2023-04-18T03:42:49.888Z,504.00
2023-04-18T03:43:49.875Z,506.00
2023-04-18T03:44:49.893Z,503.00
2023-04-18T03:45:49.908Z,507.00
2023-04-18T03:46:49.858Z,507.00
2023-04-18T03:47:49.890Z,504.00
2023-04-18T03:48:49.863Z,502.00
2023-04-18T03:49:49.847Z,504.00
2023-04-18T03:50:49.829Z,507.00
2023-04-18T03:51:49.843Z,507.00
2023-04-18T03:52:49.822Z,511.00
2023-04-18T03:53:49.811Z,510.00
2023-04-18T03:54:49.832Z,505.00
2023-04-18T03:55:49.807Z,508.00
2023-04-18T03:56:49.818Z,504.00
2023-04-18T03:57:49.783Z,504.00
2023-04-18T03:58:49.784Z,508.00
2023-04-18T03:59:49.775Z,508.00
2023-04-18T04:00:49.760Z,504.00
2023-04-18T04:01:49.808Z,506.00
2023-04-18T04:02:49.918Z,506.00
2023-04-18T04:03:49.930Z,510.00
2023-04-18T04:04:49.801Z,507.00
2023-04-18T04:05:49.722Z,509.00
2023-04-18T04:06:49.720Z,508.00
2023-04-18T04:07:49.719Z,505.00
2023-04-18T04:08:49.716Z,510.00
2023-04-18T04:09:49.715Z,509.00
2023-04-18T04:10:49.719Z,506.00
2023-04-18T04:11:49.695Z,508.00
2023-04-18T04:12:49.694Z,504.00
2023-04-18T04:13:49.680Z,507.00
2023-04-18T04:14:49.677Z,512.00
2023-04-18T04:15:49.665Z,507.00
2023-04-18T04:16:49.878Z,500.00
2023-04-18T04:17:50.176Z,504.00
2023-04-18T04:18:49.644Z,506.00
2023-04-18T04:19:49.641Z,505.00
2023-04-18T04:20:49.640Z,506.00
2023-04-18T04:21:49.631Z,509.00
2023-04-18T04:22:49.620Z,508.00
2023-04-18T04:23:49.615Z,502.00
2023-04-18T04:24:49.604Z,509.00
2023-04-18T04:25:49.593Z,507.00
2023-04-18T04:26:49.624Z,505.00
2023-04-18T04:27:49.583Z,506.00
2023-04-18T04:28:49.576Z,506.00
2023-04-18T04:29:49.563Z,508.00
2023-04-18T04:30:49.553Z,508.00
2023-04-18T04:31:49.602Z,510.00
2023-04-18T04:32:49.589Z,503.00
2023-04-18T04:33:49.559Z,507.00
2023-04-18T04:34:49.525Z,510.00
2023-04-18T04:35:49.520Z,508.00
2023-04-18T04:36:49.521Z,506.00
2023-04-18T04:37:49.507Z,505.00
2023-04-18T04:38:49.502Z,510.00
2023-04-18T04:39:49.511Z,507.00
2023-04-18T04:40:49.490Z,512.00
2023-04-18T04:41:49.489Z,505.00
2023-04-18T04:42:49.502Z,509.00
2023-04-18T04:43:49.460Z,503.00
2023-04-18T04:44:49.504Z,502.00
2023-04-18T04:45:49.503Z,506.00
2023-04-18T04:46:49.444Z,507.00
2023-04-18T04:47:49.525Z,505.00
2023-04-18T04:48:49.432Z,509.00
2023-04-18T04:49:49.426Z,513.00
2023-04-18T04:50:49.412Z,511.00
2023-04-18T04:51:49.410Z,509.00
2023-04-18T04:52:49.407Z,509.00
2023-04-18T04:53:49.395Z,512.00
2023-04-18T04:54:49.394Z,509.00
2023-04-18T04:55:49.379Z,505.00
2023-04-18T04:56:49.369Z,509.00
2023-04-18T04:57:49.368Z,509.00
2023-04-18T04:58:49.383Z,506.00
2023-04-18T04:59:49.353Z,508.00
2023-04-18T05:00:49.534Z,511.00
2023-04-18T05:01:49.541Z,508.00
2023-04-18T05:02:49.515Z,512.00
2023-04-18T05:03:49.526Z,507.00
2023-04-18T05:04:49.320Z,510.00
2023-04-18T05:05:49.314Z,507.00
2023-04-18T05:06:49.301Z,511.00
2023-04-18T05:07:49.293Z,507.00
2023-04-18T05:08:49.285Z,509.00
2023-04-18T05:09:49.284Z,505.00
2023-04-18T05:10:49.277Z,509.00
2023-04-18T05:11:49.293Z,505.00
2023-04-18T05:12:49.259Z,506.00
2023-04-18T05:13:49.262Z,510.00
2023-04-18T05:14:49.266Z,507.00
2023-04-18T05:15:49.233Z,509.00
2023-04-18T05:16:49.276Z,509.00
2023-04-18T05:17:49.735Z,501.00
2023-04-18T05:18:49.220Z,504.00
2023-04-18T05:19:49.702Z,505.00
2023-04-18T05:20:49.210Z,515.00
2023-04-18T05:21:49.194Z,502.00
2023-04-18T05:22:49.199Z,510.00
2023-04-18T05:23:49.188Z,508.00
2023-04-18T05:24:49.200Z,512.00
2023-04-18T05:25:49.172Z,506.00
2023-04-18T05:26:49.164Z,509.00
2023-04-18T05:27:49.158Z,510.00
2023-04-18T05:28:49.147Z,509.00
2023-04-18T05:29:49.149Z,510.00
2023-04-18T05:30:49.255Z,509.00
2023-04-18T05:31:49.132Z,511.00
2023-04-18T05:32:49.207Z,514.00
2023-04-18T05:33:49.112Z,513.00
2023-04-18T05:34:49.112Z,520.00
2023-04-18T05:35:49.207Z,523.00
2023-04-18T05:36:49.094Z,522.00
2023-04-18T05:37:49.238Z,522.00
2023-04-18T05:38:49.095Z,524.00
2023-04-18T05:39:49.208Z,523.00
2023-04-18T05:40:49.134Z,527.00
2023-04-18T05:41:49.083Z,527.00
2023-04-18T05:42:49.060Z,532.00
2023-04-18T05:43:58.127Z,532.00
2023-04-18T05:44:49.066Z,533.00
2023-04-18T05:45:49.052Z,536.00
2023-04-18T05:46:49.124Z,539.00
2023-04-18T05:47:49.067Z,545.00
2023-04-18T05:48:49.219Z,550.00
2023-04-18T05:49:49.220Z,550.00
2023-04-18T05:50:48.991Z,550.00
2023-04-18T05:51:48.998Z,559.00
2023-04-18T05:52:48.981Z,569.00
2023-04-18T05:53:49.217Z,562.00
2023-04-18T05:54:48.972Z,572.00
2023-04-18T05:55:49.147Z,574.00
2023-04-18T05:56:49.198Z,583.00
2023-04-18T05:57:48.963Z,586.00
2023-04-18T05:58:49.221Z,614.00
2023-04-18T05:59:48.928Z,571.00
2023-04-18T06:00:49.229Z,545.00
2023-04-18T06:01:48.925Z,552.00
2023-04-18T06:02:49.093Z,568.00
2023-04-18T06:03:49.446Z,593.00
2023-04-18T06:04:49.193Z,610.00
2023-04-18T06:05:48.978Z,625.00
2023-04-18T06:06:48.888Z,635.00
2023-04-18T06:07:49.236Z,646.00
2023-04-18T06:08:48.868Z,652.00
2023-04-18T06:09:49.222Z,656.00
2023-04-18T06:10:48.851Z,663.00
2023-04-18T06:11:48.844Z,675.00
2023-04-18T06:12:49.320Z,666.00
2023-04-18T06:13:49.230Z,667.00
2023-04-18T06:14:49.413Z,666.00
2023-04-18T06:15:49.765Z,655.00
2023-04-18T06:16:49.208Z,656.00
2023-04-18T06:17:49.420Z,651.00
2023-04-18T06:18:49.311Z,649.00
2023-04-18T06:19:49.657Z,645.00
2023-04-18T06:20:49.744Z,642.00
2023-04-18T06:21:49.260Z,637.00
2023-04-18T06:22:49.499Z,637.00
2023-04-18T06:23:49.856Z,633.00
2023-04-18T06:24:49.449Z,630.00
2023-04-18T06:25:49.553Z,631.00
2023-04-18T06:26:49.165Z,631.00
2023-04-18T06:27:49.228Z,630.00
2023-04-18T06:28:49.559Z,629.00
2023-04-18T06:29:49.452Z,630.00
2023-04-18T06:30:50.091Z,630.00
2023-04-18T06:31:49.286Z,622.00
2023-04-18T06:32:49.589Z,632.00
2023-04-18T06:33:49.434Z,625.00
2023-04-18T06:34:49.377Z,624.00
2023-04-18T06:35:49.071Z,630.00
2023-04-18T06:36:49.130Z,622.00
2023-04-18T06:37:49.074Z,625.00
2023-04-18T06:38:49.237Z,625.00
2023-04-18T06:39:49.077Z,627.00
2023-04-18T06:40:49.068Z,625.00
2023-04-18T06:41:49.070Z,634.00
2023-04-18T06:42:49.070Z,632.00
2023-04-18T06:44:02.242Z,628.00
2023-04-18T06:44:49.066Z,629.00
2023-04-18T06:45:49.085Z,629.00
2023-04-18T06:46:49.241Z,629.00
2023-04-18T06:47:49.077Z,627.00
2023-04-18T06:48:51.441Z,629.00
2023-04-18T06:49:49.265Z,637.00
2023-04-18T06:50:49.112Z,636.00
2023-04-18T06:51:49.257Z,631.00
2023-04-18T06:52:49.252Z,631.00
2023-04-18T06:53:49.017Z,629.00
2023-04-18T06:54:49.251Z,625.00
2023-04-18T06:55:48.979Z,623.00
2023-04-18T06:56:52.215Z,623.00
2023-04-18T06:57:48.965Z,623.00
2023-04-18T06:58:49.248Z,623.00
2023-04-18T06:59:48.956Z,624.00
2023-04-18T07:00:49.285Z,621.00
2023-04-18T07:01:48.946Z,622.00
2023-04-18T07:02:49.048Z,619.00
2023-04-18T07:03:49.328Z,619.00
2023-04-18T07:04:48.919Z,616.00
2023-04-18T07:05:48.903Z,615.00
2023-04-18T07:06:48.929Z,614.00
2023-04-18T07:07:48.892Z,619.00
2023-04-18T07:08:49.241Z,618.00
2023-04-18T07:09:48.872Z,615.00
2023-04-18T07:10:48.868Z,617.00
2023-04-18T07:11:48.860Z,619.00
2023-04-18T07:12:48.852Z,619.00
2023-04-18T07:13:49.261Z,610.00
2023-04-18T07:14:49.442Z,618.00
2023-04-18T07:15:48.835Z,614.00
2023-04-18T07:16:48.913Z,608.00
2023-04-18T07:17:48.869Z,613.00
2023-04-18T07:18:48.814Z,606.00
2023-04-18T07:19:48.803Z,608.00
2023-04-18T07:20:48.794Z,607.00
2023-04-18T07:21:48.789Z,610.00
2023-04-18T07:22:48.822Z,608.00
2023-04-18T07:23:49.254Z,612.00
2023-04-18T07:24:48.774Z,605.00
2023-04-18T07:25:48.756Z,605.00
2023-04-18T07:26:48.776Z,602.00
2023-04-18T07:27:48.759Z,606.00
2023-04-18T07:28:48.755Z,608.00
2023-04-18T07:29:48.733Z,606.00
2023-04-18T07:30:48.727Z,607.00
2023-04-18T07:31:48.719Z,603.00
2023-04-18T07:32:48.767Z,597.00
2023-04-18T07:33:48.775Z,604.00
2023-04-18T07:34:48.693Z,602.00
2023-04-18T07:35:48.686Z,601.00
2023-04-18T07:36:48.712Z,606.00
2023-04-18T07:37:48.674Z,601.00
2023-04-18T07:38:48.884Z,613.00
2023-04-18T07:39:49.050Z,608.00
2023-04-18T07:40:48.688Z,618.00
2023-04-18T07:41:48.655Z,627.00
2023-04-18T07:42:48.656Z,638.00
2023-04-18T07:43:48.658Z,645.00
2023-04-18T07:44:48.761Z,657.00
2023-04-18T07:45:48.723Z,666.00
2023-04-18T07:46:48.654Z,683.00
2023-04-18T07:47:48.666Z,700.00
2023-04-18T07:48:48.766Z,734.00
2023-04-18T07:49:48.632Z,766.00
2023-04-18T07:50:48.769Z,788.00
2023-04-18T07:51:48.593Z,810.00
2023-04-18T07:52:48.586Z,828.00
2023-04-18T07:53:48.572Z,847.00
2023-04-18T07:54:48.874Z,857.00
2023-04-18T07:55:48.779Z,887.00
2023-04-18T07:56:48.742Z,910.00
2023-04-18T07:57:48.818Z,913.00
2023-04-18T07:58:49.868Z,946.00
2023-04-18T07:59:48.931Z,960.00
2023-04-18T08:00:49.263Z,978.00
2023-04-18T08:01:49.050Z,1000.00
2023-04-18T08:02:49.312Z,1032.00
2023-04-18T08:03:49.327Z,1037.00
2023-04-18T08:04:49.367Z,1071.00
2023-04-18T08:05:49.267Z,1081.00
2023-04-18T08:06:49.320Z,1115.00
2023-04-18T08:07:49.366Z,1129.00
2023-04-18T08:08:49.795Z,1147.00
2023-04-18T08:09:49.465Z,1171.00
2023-04-18T08:10:49.569Z,1191.00
2023-04-18T08:11:49.565Z,1200.00
2023-04-18T08:12:49.624Z,1226.00
2023-04-18T08:13:49.786Z,1240.00
2023-04-18T08:14:49.684Z,1271.00
2023-04-18T08:15:49.852Z,1280.00
2023-04-18T08:16:49.772Z,1288.00
2023-04-18T08:17:49.860Z,1279.00
2023-04-18T08:18:49.857Z,1301.00
2023-04-18T08:19:50.281Z,1314.00
2023-04-18T08:20:49.979Z,1333.00
2023-04-18T08:21:49.975Z,1348.00
2023-04-18T08:23:05.256Z,1367.00
2023-04-18T08:23:50.028Z,1369.00
2023-04-18T08:25:03.720Z,1376.00
2023-04-18T08:25:50.001Z,1371.00
2023-04-18T08:26:50.421Z,1383.00
2023-04-18T08:27:50.442Z,1407.00
2023-04-18T08:28:50.021Z,1445.00
2023-04-18T08:29:50.294Z,1491.00
2023-04-18T08:30:49.978Z,1525.00
2023-04-18T08:31:50.010Z,1527.00
2023-04-18T08:32:50.078Z,1555.00
2023-04-18T08:33:49.990Z,1554.00
2023-04-18T08:34:50.283Z,1576.00
2023-04-18T08:35:49.969Z,1592.00
2023-04-18T08:36:49.929Z,1587.00
2023-04-18T08:37:49.932Z,1608.00
2023-04-18T08:38:49.928Z,1621.00
2023-04-18T08:39:50.292Z,1645.00
2023-04-18T08:40:49.900Z,1664.00
2023-04-18T08:41:49.897Z,1657.00
2023-04-18T08:42:49.926Z,1696.00
2023-04-18T08:43:50.305Z,1694.00
2023-04-18T08:44:50.290Z,1720.00
2023-04-18T08:45:49.930Z,1746.00
2023-04-18T08:46:49.852Z,1765.00
2023-04-18T08:47:49.921Z,1770.00
2023-04-18T08:48:49.852Z,1786.00
2023-04-18T08:49:50.292Z,1806.00
2023-04-18T08:50:49.827Z,1821.00
2023-04-18T08:51:49.819Z,1835.00
2023-04-18T08:52:49.855Z,1864.00
2023-04-18T08:53:50.298Z,1864.00
2023-04-18T08:54:50.828Z,1884.00
2023-04-18T08:55:49.799Z,1893.00
2023-04-18T08:56:49.815Z,1903.00
2023-04-18T08:57:49.786Z,1935.00
2023-04-18T08:58:49.831Z,1933.00
2023-04-18T08:59:51.073Z,1931.00
2023-04-18T09:00:49.912Z,1953.00
2023-04-18T09:01:49.813Z,1975.00
2023-04-18T09:02:50.432Z,1969.00
2023-04-18T09:03:49.861Z,1980.00
2023-04-18T09:04:49.888Z,2000.00
2023-04-18T09:05:49.874Z,2018.00
2023-04-18T09:06:49.893Z,2035.00
2023-04-18T09:07:50.326Z,2038.00
2023-04-18T09:08:49.931Z,2071.00
2023-04-18T09:09:50.975Z,2071.00
2023-04-18T09:10:49.972Z,2087.00
2023-04-18T09:11:49.985Z,2104.00
2023-04-18T09:12:50.695Z,2115.00
2023-04-18T09:13:49.997Z,2122.00
2023-04-18T09:14:50.049Z,2127.00
2023-04-18T09:15:50.020Z,2148.00
2023-04-18T09:16:50.052Z,2152.00
2023-04-18T09:17:50.380Z,2087.00
2023-04-18T09:18:50.069Z,1995.00
2023-04-18T09:19:50.117Z,1508.00
2023-04-18T09:20:50.129Z,1028.00
2023-04-18T09:21:50.308Z,858.00
2023-04-18T09:22:50.253Z,903.00
2023-04-18T09:23:50.340Z,958.00
2023-04-18T09:24:50.365Z,1068.00
2023-04-18T09:25:50.804Z,1061.00
2023-04-18T09:26:50.804Z,918.00
2023-04-18T09:27:50.847Z,1062.00
2023-04-18T09:28:52.679Z,1141.00
2023-04-18T09:29:50.563Z,1145.00
2023-04-18T09:30:50.846Z,1182.00
2023-04-18T09:31:50.845Z,1249.00
2023-04-18T09:32:50.856Z,1332.00
2023-04-18T09:33:50.542Z,1418.00
2023-04-18T09:34:50.519Z,1404.00
2023-04-18T09:35:50.510Z,1407.00
2023-04-18T09:36:50.838Z,1441.00
2023-04-18T09:37:50.534Z,1599.00
2023-04-18T09:38:50.494Z,1625.00
2023-04-18T09:39:50.487Z,1563.00
2023-04-18T09:40:50.814Z,1540.00
2023-04-18T09:41:50.469Z,1523.00
2023-04-18T09:42:50.463Z,1245.00
2023-04-18T09:43:50.466Z,1024.00
2023-04-18T09:44:50.463Z,824.00
2023-04-18T09:45:50.877Z,657.00
2023-04-18T09:46:50.527Z,572.00
2023-04-18T09:47:50.844Z,543.00
2023-04-18T09:48:50.449Z,500.00
2023-04-18T09:49:50.421Z,488.00
2023-04-18T09:50:50.492Z,505.00
2023-04-18T09:51:50.831Z,504.00
2023-04-18T09:52:50.586Z,537.00
2023-04-18T09:53:50.677Z,528.00
2023-04-18T09:54:50.718Z,489.00
2023-04-18T09:55:50.830Z,500.00
2023-04-18T09:56:50.720Z,529.00
2023-04-18T09:57:50.714Z,542.00
2023-04-18T09:58:50.712Z,541.00
2023-04-18T09:59:50.728Z,567.00
2023-04-18T10:00:50.821Z,528.00
2023-04-18T10:01:50.933Z,518.00
2023-04-18T10:02:50.871Z,535.00
2023-04-18T10:03:50.878Z,520.00
2023-04-18T10:04:50.894Z,528.00
2023-04-18T10:05:51.894Z,539.00
2023-04-18T10:06:51.093Z,518.00
2023-04-18T10:07:51.096Z,531.00
2023-04-18T10:08:50.975Z,512.00
2023-04-18T10:09:51.022Z,500.00
2023-04-18T10:10:51.375Z,503.00
2023-04-18T10:11:51.029Z,508.00
2023-04-18T10:12:51.042Z,515.00
2023-04-18T10:13:51.108Z,524.00
2023-04-18T10:14:51.328Z,501.00
2023-04-18T10:15:51.114Z,506.00
2023-04-18T10:16:51.114Z,535.00
2023-04-18T10:18:51.159Z,538.00
2023-04-18T10:19:51.140Z,500.00
2023-04-18T10:20:51.146Z,472.00
2023-04-18T10:21:51.114Z,470.00
2023-04-18T10:22:51.366Z,473.00
2023-04-18T10:23:51.131Z,504.00
2023-04-18T10:24:51.383Z,491.00
2023-04-18T10:25:51.100Z,517.00
2023-04-18T10:26:51.364Z,423.00
2023-04-18T10:27:51.062Z,503.00
2023-04-18T10:28:51.343Z,507.00
2023-04-18T10:29:51.060Z,568.00
2023-04-18T10:30:51.062Z,585.00
2023-04-18T10:31:51.418Z,637.00
2023-04-18T10:32:51.075Z,756.00
2023-04-18T10:34:03.080Z,929.00
2023-04-18T10:34:51.025Z,934.00
2023-04-18T10:35:51.036Z,969.00
2023-04-18T10:36:51.348Z,1053.00
2023-04-18T10:37:51.022Z,1203.00
2023-04-18T10:38:50.996Z,1411.00
2023-04-18T10:39:51.006Z,1471.00
2023-04-18T10:40:51.127Z,1509.00
2023-04-18T10:41:51.745Z,1569.00
2023-04-18T10:42:51.338Z,1604.00
2023-04-18T10:43:50.966Z,1650.00
2023-04-18T10:44:50.964Z,1702.00
2023-04-18T10:45:51.423Z,1744.00
2023-04-18T10:46:51.150Z,1783.00
2023-04-18T10:47:51.369Z,1823.00
2023-04-18T10:48:50.941Z,1855.00
2023-04-18T10:49:51.384Z,1904.00
2023-04-18T10:50:50.945Z,1933.00
2023-04-18T10:51:51.605Z,1967.00
2023-04-18T10:52:50.920Z,2019.00
2023-04-18T10:53:50.938Z,2041.00
2023-04-18T10:54:50.896Z,2063.00
2023-04-18T10:55:50.893Z,2086.00
2023-04-18T10:56:51.224Z,2102.00
2023-04-18T10:57:51.347Z,2138.00
2023-04-18T10:58:50.911Z,2163.00
2023-04-18T10:59:50.957Z,2207.00
2023-04-18T11:00:51.054Z,2238.00
2023-04-18T11:01:51.349Z,2273.00
2023-04-18T11:02:51.283Z,2309.00
2023-04-18T11:03:51.419Z,2345.00
2023-04-18T11:04:51.163Z,2376.00
2023-04-18T11:05:51.230Z,2413.00
2023-04-18T11:06:51.355Z,2451.00
2023-04-18T11:07:51.277Z,2484.00
2023-04-18T11:08:51.301Z,2521.00
2023-04-18T11:09:51.348Z,2550.00
2023-04-18T11:10:51.365Z,2592.00
2023-04-18T11:11:51.856Z,2625.00
2023-04-18T11:12:51.414Z,2651.00
2023-04-18T11:13:51.444Z,2686.00
2023-04-18T11:14:51.471Z,2694.00
2023-04-18T11:15:51.510Z,1913.00
2023-04-18T11:16:51.897Z,1572.00
2023-04-18T11:17:51.633Z,1425.00
2023-04-18T11:18:51.637Z,1647.00
2023-04-18T11:19:51.871Z,1393.00
2023-04-18T11:20:51.738Z,1376.00
2023-04-18T11:21:51.889Z,1331.00
2023-04-18T11:22:51.788Z,1437.00
2023-04-18T11:23:51.834Z,1337.00
2023-04-18T11:24:51.815Z,1136.00
2023-04-18T11:25:51.823Z,1187.00
2023-04-18T11:26:51.874Z,1111.00
2023-04-18T11:27:51.882Z,1087.00
2023-04-18T11:28:51.915Z,1107.00
2023-04-18T11:29:51.964Z,1032.00
2023-04-18T11:30:52.049Z,1231.00
2023-04-18T11:31:52.836Z,1673.00
2023-04-18T11:32:52.447Z,1918.00
2023-04-18T11:33:52.188Z,2028.00
2023-04-18T11:34:52.250Z,2081.00
2023-04-18T11:35:52.297Z,2110.00
2023-04-18T11:36:52.349Z,2151.00
2023-04-18T11:37:52.530Z,2181.00
2023-04-18T11:38:52.866Z,2222.00
2023-04-18T11:39:52.360Z,2254.00
2023-04-18T11:40:52.385Z,2293.00
2023-04-18T11:41:52.874Z,2340.00
2023-04-18T11:42:52.476Z,2378.00
2023-04-18T11:43:52.885Z,2418.00
2023-04-18T11:44:52.586Z,2442.00
2023-04-18T11:45:52.710Z,2476.00
2023-04-18T11:46:52.867Z,2522.00
2023-04-18T11:47:52.814Z,2515.00
2023-04-18T11:48:52.758Z,2524.00
2023-04-18T11:49:54.242Z,2541.00
2023-04-18T11:50:52.787Z,2568.00
2023-04-18T11:51:52.868Z,2569.00
2023-04-18T11:52:52.782Z,2568.00
2023-04-18T11:53:52.799Z,2577.00
2023-04-18T11:54:52.768Z,2572.00
2023-04-18T11:55:52.875Z,2577.00
2023-04-18T11:56:52.870Z,2587.00
2023-04-18T11:57:52.737Z,2575.00
2023-04-18T11:58:52.737Z,2575.00
2023-04-18T11:59:52.724Z,2572.00
2023-04-18T12:00:52.718Z,2590.00
2023-04-18T12:01:53.216Z,2584.00
2023-04-18T12:02:52.861Z,2582.00
2023-04-18T12:03:52.959Z,2590.00
2023-04-18T12:04:52.976Z,2588.00
2023-04-18T12:05:52.781Z,2587.00
2023-04-18T12:06:52.869Z,2589.00
2023-04-18T12:07:52.676Z,2581.00
2023-04-18T12:08:54.019Z,2580.00
2023-04-18T12:09:52.796Z,2575.00
2023-04-18T12:10:52.722Z,2575.00
2023-04-18T12:11:52.889Z,2593.00
2023-04-18T12:12:52.809Z,2573.00
2023-04-18T12:13:53.027Z,2562.00
2023-04-18T12:14:52.900Z,2561.00
2023-04-18T12:15:52.961Z,2559.00
2023-04-18T12:16:53.379Z,2555.00
2023-04-18T12:17:53.441Z,2541.00
2023-04-18T12:18:53.392Z,2537.00
2023-04-18T12:19:53.139Z,2527.00
2023-04-18T12:20:53.194Z,2523.00
2023-04-18T12:21:53.234Z,2507.00
2023-04-18T12:22:53.378Z,2515.00
2023-04-18T12:23:53.380Z,2522.00